createdAt,value
2022-10-17T00:01:53.871Z,101559.88
2022-10-17T00:04:23.246Z,101565.56
2022-10-17T00:06:52.532Z,101563.53
2022-10-17T00:09:21.802Z,101565.22
2022-10-17T00:11:51.076Z,101560.75
2022-10-17T00:14:20.398Z,101578.50
2022-10-17T00:16:49.665Z,101575.31
2022-10-17T00:19:18.939Z,101564.31
2022-10-17T00:21:48.298Z,101560.69
2022-10-17T00:24:17.599Z,101557.38
2022-10-17T00:26:46.883Z,101554.09
2022-10-17T00:29:16.170Z,101553.28
2022-10-17T00:31:45.502Z,101555.56
2022-10-17T00:34:14.832Z,101558.41
2022-10-17T00:36:44.224Z,101561.16
2022-10-17T00:39:13.533Z,101555.03
2022-10-17T00:41:43.120Z,101554.69
2022-10-17T00:44:34.214Z,101561.06
2022-10-17T00:47:09.204Z,101558.56
2022-10-17T00:49:39.981Z,101555.28
2022-10-17T00:52:14.579Z,101546.28
2022-10-17T00:54:48.898Z,101554.25
2022-10-17T00:57:19.683Z,101544.47
2022-10-17T00:59:54.275Z,101544.47
2022-10-17T01:02:25.126Z,101543.25
2022-10-17T01:04:57.115Z,101537.56
2022-10-17T01:07:26.610Z,101534.72
2022-10-17T01:09:56.379Z,101534.72
2022-10-17T01:12:35.405Z,101536.28
2022-10-17T01:15:17.113Z,101543.59
2022-10-17T01:18:18.751Z,101541.97
2022-10-17T01:21:06.946Z,101545.16
2022-10-17T01:23:55.025Z,101536.63
2022-10-17T01:26:42.810Z,101538.25
2022-10-17T01:30:14.140Z,101539.47
2022-10-17T01:32:51.125Z,101540.63
2022-10-17T01:36:05.664Z,101547.44
2022-10-17T01:38:45.739Z,101554.75
2022-10-17T01:41:28.027Z,101541.09
2022-10-17T01:44:03.172Z,101528.25
2022-10-17T01:46:44.790Z,101533.47
2022-10-17T01:49:17.222Z,101517.56
2022-10-17T01:51:54.439Z,101516.97
2022-10-17T01:54:49.376Z,101520.22
2022-10-17T01:57:36.882Z,101518.53
2022-10-17T02:00:11.267Z,101514.06
2022-10-17T02:02:44.930Z,101510.22
2022-10-17T02:05:15.114Z,101509.41
2022-10-17T02:07:44.827Z,101511.09
2022-10-17T02:10:24.505Z,101514.28
2022-10-17T02:13:02.327Z,101504.53
2022-10-17T02:15:39.354Z,101506.44
2022-10-17T02:18:19.478Z,101493.81
2022-10-17T02:21:03.428Z,101494.72
2022-10-17T02:23:42.408Z,101509.06
2022-10-17T02:26:28.647Z,101511.44
2022-10-17T02:29:18.594Z,101518.75
2022-10-17T02:31:57.241Z,101520.78
2022-10-17T02:34:39.181Z,101518.84
2022-10-17T02:37:11.098Z,101506.34
2022-10-17T02:39:42.776Z,101517.72
2022-10-17T02:42:16.584Z,101510.31
2022-10-17T02:44:48.330Z,101511.09
2022-10-17T02:47:27.242Z,101506.22
2022-10-17T02:50:01.231Z,101519.41
2022-10-17T02:52:44.503Z,101505.97
2022-10-17T02:55:21.892Z,101511.69
2022-10-17T02:58:13.368Z,101518.72
2022-10-17T03:00:44.123Z,101502.88
2022-10-17T03:03:32.171Z,101512.56
2022-10-17T03:06:04.909Z,101515.41
2022-10-17T03:08:34.238Z,101507.34
2022-10-17T03:11:03.635Z,101504.03
2022-10-17T03:13:36.230Z,101506.88
2022-10-17T03:16:08.947Z,101500.16
2022-10-17T03:18:38.882Z,101501.53
2022-10-17T03:21:08.517Z,101506.34
2022-10-17T03:23:38.322Z,101507.91
2022-10-17T03:26:09.864Z,101502.22
2022-10-17T03:28:39.674Z,101514.28
2022-10-17T03:31:13.866Z,101516.34
2022-10-17T03:33:43.819Z,101516.34
2022-10-17T03:36:16.551Z,101511.09
2022-10-17T03:38:48.115Z,101522.59
2022-10-17T03:41:19.350Z,101513.84
2022-10-17T03:43:48.923Z,101520.91
2022-10-17T03:49:08.827Z,101518.41
2022-10-17T03:51:38.979Z,101530.47
2022-10-17T03:54:13.675Z,101526.38
2022-10-17T03:56:43.936Z,101527.63
2022-10-17T03:59:17.785Z,101525.91
2022-10-17T04:01:55.403Z,101521.03
2022-10-17T04:04:25.246Z,101527.84
2022-10-17T04:06:54.518Z,101526.25
2022-10-17T04:09:23.935Z,101524.22
2022-10-17T04:11:59.720Z,101525.44
2022-10-17T04:14:29.348Z,101527.41
2022-10-17T04:16:59.036Z,101528.97
2022-10-17T04:19:29.798Z,101527.41
2022-10-17T04:21:59.443Z,101526.59
2022-10-17T04:24:30.450Z,101524.66
2022-10-17T04:27:08.714Z,101512.59
2022-10-17T04:29:41.704Z,101520.22
2022-10-17T04:32:19.147Z,101522.94
2022-10-17T04:35:17.657Z,101525.34
2022-10-17T04:37:52.003Z,101510.69
2022-10-17T04:40:22.991Z,101515.44
2022-10-17T04:42:54.966Z,101522.72
2022-10-17T04:45:31.695Z,101538.31
2022-10-17T04:48:04.834Z,101542.88
2022-10-17T04:50:34.248Z,101534.56
2022-10-17T04:53:29.631Z,101533.31
2022-10-17T04:55:59.112Z,101548.34
2022-10-17T04:58:28.591Z,101558.94
2022-10-17T05:00:58.089Z,101561.44
2022-10-17T05:03:30.884Z,101558.94
2022-10-17T05:06:00.270Z,101559.72
2022-10-17T05:08:29.547Z,101548.44
2022-10-17T05:13:58.375Z,101566.31
2022-10-17T05:16:29.142Z,101564.06
2022-10-17T05:19:00.429Z,101566.78
2022-10-17T05:21:37.377Z,101572.81
2022-10-17T05:24:12.595Z,101571.22
2022-10-17T05:26:42.530Z,101571.22
2022-10-17T05:29:11.940Z,101581.72
2022-10-17T05:31:47.389Z,101575.66
2022-10-17T05:34:16.758Z,101573.53
2022-10-17T05:36:47.683Z,101578.88
2022-10-17T05:39:20.796Z,101580.78
2022-10-17T05:41:52.792Z,101577.59
2022-10-17T05:44:22.175Z,101584.09
2022-10-17T05:46:56.796Z,101579.97
2022-10-17T05:49:33.420Z,101584.44
2022-10-17T05:52:13.455Z,101585.56
2022-10-17T05:55:03.032Z,101596.19
2022-10-17T05:57:32.418Z,101605.50
2022-10-17T06:00:02.941Z,101595.25
2022-10-17T06:02:43.649Z,101590.25
2022-10-17T06:05:16.487Z,101591.25
2022-10-17T06:07:46.278Z,101603.09
2022-10-17T06:10:17.371Z,101611.66
2022-10-17T06:12:47.259Z,101601.06
2022-10-17T06:15:17.791Z,101604.84
2022-10-17T06:17:52.830Z,101616.09
2022-10-17T06:20:22.192Z,101610.41
2022-10-17T06:22:52.275Z,101623.50
2022-10-17T06:25:36.704Z,101623.38
2022-10-17T06:28:06.587Z,101621.78
2022-10-17T06:30:35.855Z,101631.47
2022-10-17T06:33:05.548Z,101634.19
2022-10-17T06:35:34.878Z,101631.69
2022-10-17T06:38:04.444Z,101631.34
2022-10-17T06:40:37.182Z,101636.50
2022-10-17T06:43:07.427Z,101635.91
2022-10-17T06:48:41.365Z,101638.88
2022-10-17T06:51:25.083Z,101627.03
2022-10-17T06:53:59.727Z,101637.84
2022-10-17T06:56:36.138Z,101608.91
2022-10-17T06:59:24.401Z,101636.47
2022-10-17T07:02:05.380Z,101633.41
2022-10-17T07:04:35.179Z,101625.09
2022-10-17T07:07:04.961Z,101625.78
2022-10-17T07:09:36.693Z,101638.66
2022-10-17T07:12:08.389Z,101642.53
2022-10-17T07:14:38.286Z,101643.50
2022-10-17T07:17:07.710Z,101646.91
2022-10-17T07:19:37.032Z,101654.88
2022-10-17T07:22:06.364Z,101653.84
2022-10-17T07:24:37.028Z,101646.97
2022-10-17T07:27:21.150Z,101650.84
2022-10-17T07:29:50.667Z,101658.81
2022-10-17T07:32:26.480Z,101651.19
2022-10-17T07:34:55.793Z,101650.16
2022-10-17T07:37:25.069Z,101669.31
2022-10-17T07:39:58.076Z,101668.38
2022-10-17T07:42:28.555Z,101671.78
2022-10-17T07:44:58.149Z,101677.00
2022-10-17T07:47:31.424Z,101675.41
2022-10-17T07:50:02.188Z,101690.22
2022-10-17T07:52:31.855Z,101700.94
2022-10-17T07:55:01.554Z,101692.94
2022-10-17T07:57:31.004Z,101711.53
2022-10-17T08:00:00.232Z,101719.28
2022-10-17T08:02:30.900Z,101723.66
2022-10-17T08:05:00.451Z,101726.94
2022-10-17T08:07:29.800Z,101733.94
2022-10-17T08:09:59.185Z,101739.97
2022-10-17T08:12:32.528Z,101738.91
2022-10-17T08:15:02.198Z,101745.84
2022-10-17T08:17:31.503Z,101759.13
2022-10-17T08:20:00.768Z,101763.38
2022-10-17T08:22:30.318Z,101775.06
2022-10-17T08:24:59.820Z,101785.41
2022-10-17T08:27:29.051Z,101790.22
2022-10-17T08:29:58.375Z,101779.63
2022-10-17T08:32:30.487Z,101789.41
2022-10-17T08:35:00.072Z,101790.31
2022-10-17T08:37:30.444Z,101792.66
2022-10-17T08:39:59.942Z,101805.38
2022-10-17T08:43:02.108Z,101810.31
2022-10-17T08:46:00.526Z,101819.09
2022-10-17T08:48:33.946Z,101822.09
2022-10-17T08:51:15.955Z,101835.13
2022-10-17T08:53:52.331Z,101839.44
2022-10-17T08:56:44.099Z,101854.06
2022-10-17T08:59:16.536Z,101848.03
2022-10-17T09:01:58.259Z,101846.22
2022-10-17T09:05:05.026Z,101842.44
2022-10-17T09:07:48.821Z,101844.69
2022-10-17T09:10:31.448Z,101841.00
2022-10-17T09:13:42.580Z,101849.56
2022-10-17T09:16:41.684Z,101865.91
2022-10-17T09:19:25.998Z,101850.84
2022-10-17T09:21:59.981Z,101856.75
2022-10-17T09:24:45.807Z,101852.78
2022-10-17T09:27:25.280Z,101845.66
2022-10-17T09:30:07.169Z,101837.91
2022-10-17T09:32:41.099Z,101862.78
2022-10-17T09:35:16.365Z,101863.72
2022-10-17T09:37:46.255Z,101868.50
2022-10-17T09:40:25.307Z,101875.16
2022-10-17T09:42:55.124Z,101896.75
2022-10-17T09:45:27.635Z,101937.38
2022-10-17T09:48:02.580Z,101987.44
2022-10-17T09:50:35.059Z,101930.97
2022-10-17T09:53:18.440Z,101902.84
2022-10-17T09:55:51.834Z,101865.44
2022-10-17T09:58:23.240Z,101846.44
2022-10-17T10:00:52.555Z,101855.63
2022-10-17T10:03:22.997Z,101842.81
2022-10-17T10:06:05.783Z,101856.91
2022-10-17T10:08:38.772Z,101869.16
2022-10-17T10:11:13.996Z,101868.69
2022-10-17T10:13:43.648Z,101865.34
2022-10-17T10:16:34.453Z,101890.97
2022-10-17T10:19:07.041Z,101904.81
2022-10-17T10:21:38.384Z,101924.50
2022-10-17T10:24:17.378Z,101913.16
2022-10-17T10:26:53.038Z,101896.78
2022-10-17T10:29:36.265Z,101914.28
2022-10-17T10:32:24.707Z,101905.69
2022-10-17T10:34:59.011Z,101901.03
2022-10-17T10:37:32.932Z,101916.91
2022-10-17T10:40:05.597Z,101915.53
2022-10-17T10:42:38.558Z,101926.50
2022-10-17T10:45:42.947Z,101921.97
2022-10-17T10:48:21.734Z,101911.97
2022-10-17T10:50:58.736Z,101909.00
2022-10-17T10:53:48.569Z,101914.63
2022-10-17T10:56:30.961Z,101905.59
2022-10-17T10:59:20.046Z,101911.88
2022-10-17T11:02:17.849Z,101903.66
2022-10-17T11:04:55.937Z,101911.19
2022-10-17T11:08:03.000Z,101927.16
2022-10-17T11:11:06.494Z,101926.28
2022-10-17T11:13:54.300Z,101944.31
2022-10-17T11:16:42.627Z,101944.44
2022-10-17T11:19:21.079Z,101940.31
2022-10-17T11:21:55.687Z,101935.25
2022-10-17T11:24:32.908Z,101944.63
2022-10-17T11:27:05.761Z,101948.47
2022-10-17T11:29:39.394Z,101953.75
2022-10-17T11:32:16.304Z,101964.19
2022-10-17T11:34:50.954Z,101982.59
2022-10-17T11:37:28.143Z,101987.81
2022-10-17T11:40:02.764Z,101991.22
2022-10-17T11:42:37.543Z,101992.97
2022-10-17T11:45:14.173Z,102002.81
2022-10-17T11:47:54.367Z,102006.81
2022-10-17T11:53:31.836Z,102020.03
2022-10-17T11:56:03.787Z,102009.41
2022-10-17T11:58:39.561Z,102011.31
2022-10-17T12:01:15.275Z,102008.47
2022-10-17T12:04:09.716Z,102008.03
2022-10-17T12:07:20.250Z,102011.44
2022-10-17T12:10:17.306Z,102010.53
2022-10-17T12:12:48.205Z,102008.16
2022-10-17T12:15:23.595Z,102002.31
2022-10-17T12:18:06.676Z,101998.84
2022-10-17T12:20:38.453Z,101999.94
2022-10-17T12:23:23.192Z,102011.25
2022-10-17T12:25:59.638Z,101996.38
2022-10-17T12:28:45.089Z,101995.78
2022-10-17T12:31:21.787Z,102005.69
2022-10-17T12:33:56.468Z,102013.34
2022-10-17T12:36:25.798Z,102014.16
2022-10-17T12:39:04.240Z,102019.66
2022-10-17T12:41:44.440Z,102017.44
2022-10-17T12:44:16.824Z,102019.72
2022-10-17T12:47:00.680Z,101989.72
2022-10-17T12:49:56.498Z,102010.47
2022-10-17T12:52:36.658Z,102026.09
2022-10-17T12:55:12.264Z,102020.66
2022-10-17T12:57:50.180Z,102023.16
2022-10-17T13:00:25.617Z,102021.13
2022-10-17T13:02:58.115Z,102018.25
2022-10-17T13:05:32.562Z,102033.03
2022-10-17T13:08:04.129Z,102037.81
2022-10-17T13:10:39.653Z,102032.41
2022-10-17T13:13:20.882Z,102033.69
2022-10-17T13:15:54.637Z,102050.88
2022-10-17T13:18:27.544Z,102053.41
2022-10-17T13:21:07.931Z,102053.94
2022-10-17T13:23:40.490Z,102052.03
2022-10-17T13:26:14.687Z,102052.28
2022-10-17T13:28:45.486Z,102054.34
2022-10-17T13:31:34.568Z,102061.53
2022-10-17T13:34:06.294Z,102066.63
2022-10-17T13:36:37.615Z,102069.31
2022-10-17T13:39:16.850Z,102082.84
2022-10-17T13:41:46.508Z,102089.84
2022-10-17T13:44:28.586Z,102097.44
2022-10-17T13:46:59.412Z,102091.63
2022-10-17T13:49:36.969Z,102100.88
2022-10-17T13:52:09.023Z,102101.81
2022-10-17T13:54:43.787Z,102100.69
2022-10-17T13:57:23.976Z,102108.59
2022-10-17T13:59:56.388Z,102103.81
2022-10-17T14:02:28.536Z,102114.31
2022-10-17T14:05:18.190Z,102117.50
2022-10-17T14:08:11.290Z,102109.88
2022-10-17T14:10:43.911Z,102104.59
2022-10-17T14:13:25.347Z,102107.94
2022-10-17T14:15:57.482Z,102101.53
2022-10-17T14:18:35.692Z,102110.59
2022-10-17T14:24:16.403Z,102128.78
2022-10-17T14:26:53.325Z,102119.84
2022-10-17T14:29:34.628Z,102133.03
2022-10-17T14:32:10.215Z,102141.88
2022-10-17T14:34:42.376Z,102144.84
2022-10-17T14:37:27.997Z,102150.69
2022-10-17T14:39:57.874Z,102154.91
2022-10-17T14:42:30.380Z,102172.06
2022-10-17T14:45:09.637Z,102175.28
2022-10-17T14:47:43.618Z,102181.13
2022-10-17T14:50:13.383Z,102183.75
2022-10-17T14:52:43.223Z,102189.81
2022-10-17T14:55:30.131Z,102189.47
2022-10-17T14:58:02.303Z,102196.00
2022-10-17T15:00:31.734Z,102190.63
2022-10-17T15:03:01.097Z,102186.03
2022-10-17T15:05:30.454Z,102190.38
2022-10-17T15:08:02.068Z,102182.25
2022-10-17T15:10:37.255Z,102182.56
2022-10-17T15:15:56.227Z,102184.44
2022-10-17T15:18:25.495Z,102180.31
2022-10-17T15:21:04.585Z,102186.59
2022-10-17T15:23:35.998Z,102173.91
2022-10-17T15:26:05.344Z,102183.63
2022-10-17T15:28:34.675Z,102183.75
2022-10-17T15:31:04.012Z,102180.53
2022-10-17T15:33:33.298Z,102183.75
2022-10-17T15:36:03.162Z,102179.63
2022-10-17T15:38:36.454Z,102187.06
2022-10-17T15:41:05.745Z,102196.09
2022-10-17T15:43:35.051Z,102203.19
2022-10-17T15:46:05.075Z,102204.44
2022-10-17T15:48:34.595Z,102206.16
2022-10-17T15:51:03.853Z,102219.19
2022-10-17T15:53:33.166Z,102216.00
2022-10-17T15:56:03.001Z,102217.78
2022-10-17T15:58:41.829Z,102207.28
2022-10-17T16:01:22.899Z,102228.88
2022-10-17T16:03:53.368Z,102236.75
2022-10-17T16:06:24.489Z,102234.22
2022-10-17T16:08:54.767Z,102226.22
2022-10-17T16:11:37.916Z,102233.22
2022-10-17T16:14:10.145Z,102239.38
2022-10-17T16:16:39.424Z,102249.22
2022-10-17T16:19:09.134Z,102244.16
2022-10-17T16:21:42.156Z,102247.91
2022-10-17T16:24:13.835Z,102244.72
2022-10-17T16:26:43.810Z,102244.94
2022-10-17T16:29:13.176Z,102253.16
2022-10-17T16:31:45.675Z,102258.84
2022-10-17T16:34:16.761Z,102256.66
2022-10-17T16:36:46.202Z,102256.66
2022-10-17T16:39:15.579Z,102257.94
2022-10-17T16:41:44.927Z,102260.91
2022-10-17T16:44:17.512Z,102264.88
2022-10-17T16:46:47.304Z,102278.81
2022-10-17T16:49:18.517Z,102277.31
2022-10-17T16:51:47.803Z,102276.06
2022-10-17T16:54:17.091Z,102287.94
2022-10-17T16:56:46.366Z,102272.69
2022-10-17T16:59:15.630Z,102280.38
2022-10-17T17:01:45.076Z,102292.25
2022-10-17T17:04:14.380Z,102293.13
2022-10-17T17:09:33.130Z,102282.63
2022-10-17T17:12:02.560Z,102284.31
2022-10-17T17:14:31.837Z,102284.88
2022-10-17T17:17:01.104Z,102278.00
2022-10-17T17:19:30.480Z,102284.53
2022-10-17T17:21:59.767Z,102287.03
2022-10-17T17:24:32.239Z,102290.22
2022-10-17T17:27:01.653Z,102297.56
2022-10-17T17:29:30.934Z,102302.47
2022-10-17T17:32:00.232Z,102304.84
2022-10-17T17:34:29.592Z,102302.34
2022-10-17T17:36:58.871Z,102305.41
2022-10-17T17:39:29.611Z,102316.28
2022-10-17T17:41:58.976Z,102310.31
2022-10-17T17:44:30.774Z,102312.00
2022-10-17T17:47:00.133Z,102315.00
2022-10-17T17:49:31.184Z,102318.41
2022-10-17T17:54:50.245Z,102333.22
2022-10-17T17:57:19.533Z,102335.34
2022-10-17T17:59:49.834Z,102326.88
2022-10-17T18:02:19.410Z,102329.75
2022-10-17T18:04:49.033Z,102321.28
2022-10-17T18:07:18.298Z,102321.47
2022-10-17T18:09:48.143Z,102336.09
2022-10-17T18:12:17.526Z,102338.22
2022-10-17T18:14:46.821Z,102338.38
2022-10-17T18:17:16.298Z,102348.53
2022-10-17T18:19:45.593Z,102349.34
2022-10-17T18:22:14.924Z,102349.34
2022-10-17T18:24:44.278Z,102351.75
2022-10-17T18:27:15.964Z,102342.47
2022-10-17T18:29:48.769Z,102349.81
2022-10-17T18:32:18.267Z,102355.97
2022-10-17T18:34:47.606Z,102349.44
2022-10-17T18:37:16.861Z,102360.13
2022-10-17T18:39:48.467Z,102357.47
2022-10-17T18:42:17.743Z,102356.59
2022-10-17T18:44:47.052Z,102363.44
2022-10-17T18:47:16.311Z,102356.59
2022-10-17T18:49:45.671Z,102375.31
2022-10-17T18:52:14.939Z,102381.44
2022-10-17T18:54:44.289Z,102374.66
2022-10-17T18:57:13.625Z,102377.06
2022-10-17T18:59:42.888Z,102366.56
2022-10-17T19:02:13.518Z,102381.19
2022-10-17T19:04:42.905Z,102371.00
2022-10-17T19:07:12.271Z,102374.75
2022-10-17T19:09:42.615Z,102380.81
2022-10-17T19:12:11.879Z,102381.19
2022-10-17T19:14:41.252Z,102378.03
2022-10-17T19:17:10.534Z,102375.19
2022-10-17T19:19:40.019Z,102376.50
2022-10-17T19:22:09.660Z,102379.72
2022-10-17T19:24:38.974Z,102375.28
2022-10-17T19:27:08.252Z,102380.53
2022-10-17T19:29:37.512Z,102377.41
2022-10-17T19:32:14.128Z,102381.06
2022-10-17T19:34:46.223Z,102366.16
2022-10-17T19:37:15.539Z,102367.69
2022-10-17T19:39:45.110Z,102384.19
2022-10-17T19:42:14.403Z,102385.44
2022-10-17T19:44:43.824Z,102379.03
2022-10-17T19:47:13.411Z,102372.44
2022-10-17T19:49:46.501Z,102370.09
2022-10-17T19:52:18.425Z,102373.31
2022-10-17T19:54:47.672Z,102374.84
2022-10-17T19:57:16.955Z,102384.19
2022-10-17T19:59:46.251Z,102384.19
2022-10-17T20:02:16.146Z,102384.56
2022-10-17T20:04:54.493Z,102382.94
2022-10-17T20:07:29.388Z,102383.38
2022-10-17T20:09:58.658Z,102387.50
2022-10-17T20:12:28.363Z,102386.69
2022-10-17T20:14:57.797Z,102374.63
2022-10-17T20:17:27.138Z,102396.75
2022-10-17T20:19:56.487Z,102390.63
2022-10-17T20:22:25.752Z,102400.78
2022-10-17T20:24:55.020Z,102396.84
2022-10-17T20:27:27.711Z,102400.94
2022-10-17T20:30:01.660Z,102396.13
2022-10-17T20:32:32.755Z,102398.53
2022-10-17T20:35:02.273Z,102393.22
2022-10-17T20:37:31.796Z,102404.31
2022-10-17T20:40:29.432Z,102401.13
2022-10-17T20:42:50.609Z,102420.63
2022-10-17T20:45:32.021Z,102420.53
2022-10-17T20:48:09.895Z,102406.91
2022-10-17T20:50:40.229Z,102422.22
2022-10-17T20:53:31.842Z,102434.44
2022-10-17T20:56:14.131Z,102432.69
2022-10-17T20:58:43.474Z,102431.06
2022-10-17T21:01:13.509Z,102435.34
2022-10-17T21:03:46.392Z,102435.66
2022-10-17T21:06:17.372Z,102437.69
2022-10-17T21:08:47.855Z,102442.06
2022-10-17T21:11:27.457Z,102442.06
2022-10-17T21:14:07.826Z,102449.94
2022-10-17T21:16:38.917Z,102439.16
2022-10-17T21:19:08.956Z,102446.69
2022-10-17T21:21:40.926Z,102453.09
2022-10-17T21:24:14.436Z,102452.81
2022-10-17T21:26:45.009Z,102454.50
2022-10-17T21:29:17.151Z,102462.84
2022-10-17T21:31:46.856Z,102458.72
2022-10-17T21:34:18.953Z,102465.31
2022-10-17T21:36:48.430Z,102448.72
2022-10-17T21:39:18.361Z,102466.66
2022-10-17T21:41:47.700Z,102465.94
2022-10-17T21:44:19.757Z,102467.91
2022-10-17T21:46:49.776Z,102450.28
2022-10-17T21:49:22.124Z,102467.63
2022-10-17T21:51:51.860Z,102472.88
2022-10-17T21:54:23.021Z,102459.06
2022-10-17T21:56:53.287Z,102469.88
2022-10-17T21:59:22.599Z,102463.88
2022-10-17T22:01:51.926Z,102461.91
2022-10-17T22:04:22.248Z,102471.66
2022-10-17T22:06:53.666Z,102471.66
2022-10-17T22:09:26.316Z,102474.81
2022-10-17T22:11:58.191Z,102476.44
2022-10-17T22:14:29.421Z,102465.97
2022-10-17T22:16:58.744Z,102471.59
2022-10-17T22:19:29.382Z,102480.16
2022-10-17T22:21:58.735Z,102480.28
2022-10-17T22:24:28.081Z,102480.84
2022-10-17T22:26:57.379Z,102479.19
2022-10-17T22:29:26.710Z,102475.03
2022-10-17T22:31:56.035Z,102478.31
2022-10-17T22:34:25.276Z,102493.00
2022-10-17T22:36:54.812Z,102489.78
2022-10-17T22:39:24.046Z,102500.41
2022-10-17T22:41:53.368Z,102491.50
2022-10-17T22:44:22.667Z,102488.66
2022-10-17T22:46:52.114Z,102498.00
2022-10-17T22:49:21.383Z,102503.34
2022-10-17T22:51:50.647Z,102512.69
2022-10-17T22:54:20.043Z,102506.25
2022-10-17T22:56:49.335Z,102501.38
2022-10-17T22:59:18.937Z,102498.91
2022-10-17T23:01:48.321Z,102517.25
2022-10-17T23:04:17.655Z,102496.81
2022-10-17T23:06:46.921Z,102512.94
2022-10-17T23:09:16.752Z,102514.03
2022-10-17T23:11:46.072Z,102516.03
2022-10-17T23:14:15.605Z,102521.69
2022-10-17T23:16:44.873Z,102514.84
2022-10-17T23:19:14.128Z,102526.38
2022-10-17T23:21:43.453Z,102525.66
2022-10-17T23:24:12.765Z,102515.59
2022-10-17T23:26:42.175Z,102511.19
2022-10-17T23:29:11.526Z,102512.53
2022-10-17T23:31:40.851Z,102509.06
2022-10-17T23:34:10.115Z,102508.56
2022-10-17T23:36:39.431Z,102494.72
2022-10-17T23:39:09.484Z,102488.22
2022-10-17T23:41:38.746Z,102495.81
2022-10-17T23:44:08.411Z,102501.13
2022-10-17T23:46:37.664Z,102503.56
2022-10-17T23:49:08.866Z,102500.03
2022-10-17T23:51:38.182Z,102502.06
2022-10-17T23:54:07.842Z,102494.84
2022-10-17T23:56:37.449Z,102500.88
2022-10-17T23:59:06.866Z,102495.25
